sensor_id;sensor_type;location;lat;lon;timestamp;pressure;altitude;pressure_sealevel;temperature;humidity
41250;BME280;26984;59.928;30.306;2023-04-08T00:01:03;102652.91;;;5.33;57.71
41250;BME280;26984;59.928;30.306;2023-04-08T00:03:30;102646.72;;;5.33;57.94
41250;BME280;26984;59.928;30.306;2023-04-08T00:05:58;102649.53;;;5.31;57.85
41250;BME280;26984;59.928;30.306;2023-04-08T00:08:28;102648.13;;;5.27;57.95
41250;BME280;26984;59.928;30.306;2023-04-08T00:10:57;102653.19;;;5.30;58.43
41250;BME280;26984;59.928;30.306;2023-04-08T00:13:24;102650.78;;;5.27;57.96
41250;BME280;26984;59.928;30.306;2023-04-08T00:15:52;102639.16;;;5.38;57.75
41250;BME280;26984;59.928;30.306;2023-04-08T00:18:19;102649.81;;;5.28;57.74
41250;BME280;26984;59.928;30.306;2023-04-08T00:20:47;102656.97;;;5.27;57.64
41250;BME280;26984;59.928;30.306;2023-04-08T00:23:14;102655.66;;;5.22;57.79
41250;BME280;26984;59.928;30.306;2023-04-08T00:25:42;102659.59;;;5.18;57.80
41250;BME280;26984;59.928;30.306;2023-04-08T00:28:11;102654.81;;;5.21;57.88
41250;BME280;26984;59.928;30.306;2023-04-08T00:30:38;102646.38;;;5.16;57.97
41250;BME280;26984;59.928;30.306;2023-04-08T00:33:06;102659.97;;;5.13;58.18
41250;BME280;26984;59.928;30.306;2023-04-08T00:35:33;102657.06;;;5.16;58.31
41250;BME280;26984;59.928;30.306;2023-04-08T00:38:01;102653.81;;;5.13;57.89
41250;BME280;26984;59.928;30.306;2023-04-08T00:40:29;102650.41;;;5.11;58.17
41250;BME280;26984;59.928;30.306;2023-04-08T00:42:56;102650.13;;;5.14;58.08
41250;BME280;26984;59.928;30.306;2023-04-08T00:45:25;102650.31;;;5.22;58.29
41250;BME280;26984;59.928;30.306;2023-04-08T00:47:53;102653.84;;;5.22;57.45
41250;BME280;26984;59.928;30.306;2023-04-08T00:50:20;102651.72;;;5.16;57.78
41250;BME280;26984;59.928;30.306;2023-04-08T00:52:48;102659.00;;;5.14;57.68
41250;BME280;26984;59.928;30.306;2023-04-08T00:55:15;102661.09;;;5.11;57.96
41250;BME280;26984;59.928;30.306;2023-04-08T00:57:42;102650.91;;;5.04;58.10
41250;BME280;26984;59.928;30.306;2023-04-08T01:00:11;102647.28;;;5.06;58.32
41250;BME280;26984;59.928;30.306;2023-04-08T01:02:41;102648.38;;;5.03;58.53
41250;BME280;26984;59.928;30.306;2023-04-08T01:05:12;102652.88;;;5.02;58.02
41250;BME280;26984;59.928;30.306;2023-04-08T01:07:43;102653.00;;;5.01;58.46
41250;BME280;26984;59.928;30.306;2023-04-08T01:10:12;102653.84;;;5.01;58.43
41250;BME280;26984;59.928;30.306;2023-04-08T01:12:43;102648.19;;;4.95;58.77
41250;BME280;26984;59.928;30.306;2023-04-08T01:15:14;102642.28;;;4.91;58.90
41250;BME280;26984;59.928;30.306;2023-04-08T01:17:43;102641.41;;;4.91;58.70
41250;BME280;26984;59.928;30.306;2023-04-08T01:20:12;102648.72;;;4.89;59.10
41250;BME280;26984;59.928;30.306;2023-04-08T01:22:43;102652.47;;;4.86;59.02
41250;BME280;26984;59.928;30.306;2023-04-08T01:25:14;102645.84;;;4.80;59.25
41250;BME280;26984;59.928;30.306;2023-04-08T01:27:44;102645.13;;;4.78;59.55
41250;BME280;26984;59.928;30.306;2023-04-08T01:30:12;102645.97;;;4.79;59.19
41250;BME280;26984;59.928;30.306;2023-04-08T01:32:40;102646.34;;;4.74;59.00
41250;BME280;26984;59.928;30.306;2023-04-08T01:35:10;102641.22;;;4.83;59.14
41250;BME280;26984;59.928;30.306;2023-04-08T01:37:37;102640.19;;;4.74;59.28
41250;BME280;26984;59.928;30.306;2023-04-08T01:40:06;102635.78;;;4.73;59.39
41250;BME280;26984;59.928;30.306;2023-04-08T01:42:36;102632.03;;;4.75;59.38
41250;BME280;26984;59.928;30.306;2023-04-08T01:45:06;102639.34;;;4.73;59.59
41250;BME280;26984;59.928;30.306;2023-04-08T01:47:35;102642.97;;;4.72;59.47
41250;BME280;26984;59.928;30.306;2023-04-08T01:50:04;102642.25;;;4.70;59.67
41250;BME280;26984;59.928;30.306;2023-04-08T01:52:32;102636.91;;;4.70;59.55
41250;BME280;26984;59.928;30.306;2023-04-08T01:55:01;102634.59;;;4.66;60.09
41250;BME280;26984;59.928;30.306;2023-04-08T01:57:31;102631.94;;;4.66;60.07
41250;BME280;26984;59.928;30.306;2023-04-08T01:59:59;102630.66;;;4.60;59.84
41250;BME280;26984;59.928;30.306;2023-04-08T02:02:31;102636.81;;;4.61;59.88
41250;BME280;26984;59.928;30.306;2023-04-08T02:04:59;102627.84;;;4.62;60.56
41250;BME280;26984;59.928;30.306;2023-04-08T02:07:26;102625.41;;;4.59;60.38
41250;BME280;26984;59.928;30.306;2023-04-08T02:09:54;102622.63;;;4.60;60.12
41250;BME280;26984;59.928;30.306;2023-04-08T02:12:22;102629.91;;;4.58;60.71
41250;BME280;26984;59.928;30.306;2023-04-08T02:14:49;102626.28;;;4.59;60.32
41250;BME280;26984;59.928;30.306;2023-04-08T02:17:18;102625.91;;;4.64;60.50
41250;BME280;26984;59.928;30.306;2023-04-08T02:19:51;102628.56;;;4.64;60.46
41250;BME280;26984;59.928;30.306;2023-04-08T02:22:22;102631.94;;;4.66;60.43
41250;BME280;26984;59.928;30.306;2023-04-08T02:24:51;102630.50;;;4.62;60.87
41250;BME280;26984;59.928;30.306;2023-04-08T02:27:19;102630.50;;;4.62;60.70
41250;BME280;26984;59.928;30.306;2023-04-08T02:29:47;102624.47;;;4.60;60.93
41250;BME280;26984;59.928;30.306;2023-04-08T02:32:15;102620.94;;;4.59;61.06
41250;BME280;26984;59.928;30.306;2023-04-08T02:34:44;102622.91;;;4.57;61.20
41250;BME280;26984;59.928;30.306;2023-04-08T02:37:14;102629.84;;;4.48;61.13
41250;BME280;26984;59.928;30.306;2023-04-08T02:39:42;102625.72;;;4.44;61.47
41250;BME280;26984;59.928;30.306;2023-04-08T02:42:10;102620.88;;;4.49;61.73
41250;BME280;26984;59.928;30.306;2023-04-08T02:44:38;102624.53;;;4.48;61.35
41250;BME280;26984;59.928;30.306;2023-04-08T02:47:06;102622.44;;;4.52;61.70
41250;BME280;26984;59.928;30.306;2023-04-08T02:49:34;102619.88;;;4.50;61.98
41250;BME280;26984;59.928;30.306;2023-04-08T02:52:01;102621.47;;;4.53;61.43
41250;BME280;26984;59.928;30.306;2023-04-08T02:54:30;102621.22;;;4.56;61.63
41250;BME280;26984;59.928;30.306;2023-04-08T02:56:58;102620.47;;;4.54;62.09
41250;BME280;26984;59.928;30.306;2023-04-08T02:59:25;102617.81;;;4.54;62.23
41250;BME280;26984;59.928;30.306;2023-04-08T03:01:53;102620.38;;;4.55;61.64
41250;BME280;26984;59.928;30.306;2023-04-08T03:04:20;102615.47;;;4.61;61.88
41250;BME280;26984;59.928;30.306;2023-04-08T03:06:48;102615.47;;;4.61;62.09
41250;BME280;26984;59.928;30.306;2023-04-08T03:09:15;102614.63;;;4.60;61.37
41250;BME280;26984;59.928;30.306;2023-04-08T03:11:44;102613.78;;;4.60;61.29
41250;BME280;26984;59.928;30.306;2023-04-08T03:14:17;102615.88;;;4.56;61.89
41250;BME280;26984;59.928;30.306;2023-04-08T03:16:44;102612.94;;;4.59;62.13
41250;BME280;26984;59.928;30.306;2023-04-08T03:19:12;102612.06;;;4.59;61.71
41250;BME280;26984;59.928;30.306;2023-04-08T03:21:39;102609.41;;;4.59;61.76
41250;BME280;26984;59.928;30.306;2023-04-08T03:24:07;102612.59;;;4.52;61.89
41250;BME280;26984;59.928;30.306;2023-04-08T03:26:34;102613.44;;;4.53;61.91
41250;BME280;26984;59.928;30.306;2023-04-08T03:29:03;102615.28;;;4.52;62.19
41250;BME280;26984;59.928;30.306;2023-04-08T03:31:31;102612.59;;;4.52;62.55
41250;BME280;26984;59.928;30.306;2023-04-08T03:33:59;102613.31;;;4.54;62.37
41250;BME280;26984;59.928;30.306;2023-04-08T03:36:26;102617.31;;;4.60;62.13
41250;BME280;26984;59.928;30.306;2023-04-08T03:38:54;102614.97;;;4.67;62.16
41250;BME280;26984;59.928;30.306;2023-04-08T03:41:21;102622.56;;;4.71;61.78
41250;BME280;26984;59.928;30.306;2023-04-08T03:43:48;102615.16;;;4.75;62.02
41250;BME280;26984;59.928;30.306;2023-04-08T03:46:17;102618.16;;;4.82;61.47
41250;BME280;26984;59.928;30.306;2023-04-08T03:48:45;102621.84;;;4.90;61.54
41250;BME280;26984;59.928;30.306;2023-04-08T03:51:12;102620.50;;;4.96;61.13
41250;BME280;26984;59.928;30.306;2023-04-08T03:53:40;102616.19;;;5.04;60.70
41250;BME280;26984;59.928;30.306;2023-04-08T03:56:07;102628.28;;;5.09;60.78
41250;BME280;26984;59.928;30.306;2023-04-08T03:58:34;102623.41;;;5.14;60.88
41250;BME280;26984;59.928;30.306;2023-04-08T04:01:02;102625.59;;;5.29;59.98
41250;BME280;26984;59.928;30.306;2023-04-08T04:03:31;102622.97;;;5.39;59.77
41250;BME280;26984;59.928;30.306;2023-04-08T04:05:58;102622.47;;;5.45;59.40
41250;BME280;26984;59.928;30.306;2023-04-08T04:08:26;102622.03;;;5.50;58.92
41250;BME280;26984;59.928;30.306;2023-04-08T04:10:53;102616.59;;;5.51;58.83
41250;BME280;26984;59.928;30.306;2023-04-08T04:13:20;102620.69;;;5.56;59.21
41250;BME280;26984;59.928;30.306;2023-04-08T04:15:48;102620.69;;;5.65;58.46
41250;BME280;26984;59.928;30.306;2023-04-08T04:18:15;102624.50;;;5.72;58.34
41250;BME280;26984;59.928;30.306;2023-04-08T04:20:44;102624.50;;;5.72;58.15
41250;BME280;26984;59.928;30.306;2023-04-08T04:23:11;102631.44;;;5.75;57.61
41250;BME280;26984;59.928;30.306;2023-04-08T04:25:39;102623.72;;;5.82;57.38
41250;BME280;26984;59.928;30.306;2023-04-08T04:28:07;102623.44;;;5.85;57.37
41250;BME280;26984;59.928;30.306;2023-04-08T04:30:35;102621.59;;;5.85;57.31
41250;BME280;26984;59.928;30.306;2023-04-08T04:33:03;102620.94;;;5.93;57.21
41250;BME280;26984;59.928;30.306;2023-04-08T04:35:30;102624.66;;;6.02;56.89
41250;BME280;26984;59.928;30.306;2023-04-08T04:38:01;102618.59;;;6.09;56.10
41250;BME280;26984;59.928;30.306;2023-04-08T04:40:30;102621.28;;;6.19;56.04
41250;BME280;26984;59.928;30.306;2023-04-08T04:42:58;102613.69;;;6.24;55.69
41250;BME280;26984;59.928;30.306;2023-04-08T04:45:25;102615.13;;;6.38;55.78
41250;BME280;26984;59.928;30.306;2023-04-08T04:47:52;102619.19;;;6.42;54.93
41250;BME280;26984;59.928;30.306;2023-04-08T04:50:20;102624.97;;;6.47;55.25
41250;BME280;26984;59.928;30.306;2023-04-08T04:52:47;102617.38;;;6.52;55.13
41250;BME280;26984;59.928;30.306;2023-04-08T04:55:16;102618.47;;;6.50;54.89
41250;BME280;26984;59.928;30.306;2023-04-08T04:57:44;102619.63;;;6.57;54.52
41250;BME280;26984;59.928;30.306;2023-04-08T05:00:11;102615.53;;;6.62;54.50
41250;BME280;26984;59.928;30.306;2023-04-08T05:02:39;102613.25;;;6.67;54.04
41250;BME280;26984;59.928;30.306;2023-04-08T05:05:06;102612.53;;;6.75;53.55
41250;BME280;26984;59.928;30.306;2023-04-08T05:07:34;102611.00;;;6.82;53.25
41250;BME280;26984;59.928;30.306;2023-04-08T05:10:02;102608.03;;;6.85;53.44
41250;BME280;26984;59.928;30.306;2023-04-08T05:12:31;102615.22;;;6.94;53.84
41250;BME280;26984;59.928;30.306;2023-04-08T05:14:58;102610.69;;;7.05;53.42
41250;BME280;26984;59.928;30.306;2023-04-08T05:17:27;102611.63;;;7.13;52.57
41250;BME280;26984;59.928;30.306;2023-04-08T05:19:54;102622.47;;;7.22;53.00
41250;BME280;26984;59.928;30.306;2023-04-08T05:22:21;102619.47;;;7.34;51.97
41250;BME280;26984;59.928;30.306;2023-04-08T05:24:49;102615.47;;;7.48;51.72
41250;BME280;26984;59.928;30.306;2023-04-08T05:27:16;102602.06;;;7.48;51.40
41250;BME280;26984;59.928;30.306;2023-04-08T05:29:45;102614.00;;;7.63;51.36
41250;BME280;26984;59.928;30.306;2023-04-08T05:32:12;102617.47;;;7.74;51.35
41250;BME280;26984;59.928;30.306;2023-04-08T05:34:41;102619.03;;;7.76;50.91
41250;BME280;26984;59.928;30.306;2023-04-08T05:37:09;102611.75;;;7.86;50.30
41250;BME280;26984;59.928;30.306;2023-04-08T05:39:36;102615.19;;;7.97;50.41
41250;BME280;26984;59.928;30.306;2023-04-08T05:42:04;102602.88;;;8.04;50.13
41250;BME280;26984;59.928;30.306;2023-04-08T05:44:31;102612.00;;;8.11;50.36
41250;BME280;26984;59.928;30.306;2023-04-08T05:47:00;102607.72;;;8.18;50.17
41250;BME280;26984;59.928;30.306;2023-04-08T05:49:28;102608.50;;;8.28;50.27
41250;BME280;26984;59.928;30.306;2023-04-08T05:51:55;102605.63;;;8.39;49.71
41250;BME280;26984;59.928;30.306;2023-04-08T05:54:23;102608.53;;;8.46;49.53
41250;BME280;26984;59.928;30.306;2023-04-08T05:56:50;102602.25;;;8.55;49.55
41250;BME280;26984;59.928;30.306;2023-04-08T05:59:17;102604.69;;;8.67;49.33
41250;BME280;26984;59.928;30.306;2023-04-08T06:01:45;102600.91;;;8.77;48.74
41250;BME280;26984;59.928;30.306;2023-04-08T06:04:14;102603.97;;;8.82;47.96
41250;BME280;26984;59.928;30.306;2023-04-08T06:06:42;102611.34;;;8.80;49.15
41250;BME280;26984;59.928;30.306;2023-04-08T06:09:09;102596.44;;;8.86;48.66
41250;BME280;26984;59.928;30.306;2023-04-08T06:11:37;102602.72;;;8.95;48.57
41250;BME280;26984;59.928;30.306;2023-04-08T06:14:04;102608.66;;;9.06;47.58
41250;BME280;26984;59.928;30.306;2023-04-08T06:16:32;102600.81;;;9.13;47.81
41250;BME280;26984;59.928;30.306;2023-04-08T06:18:59;102609.56;;;9.15;47.83
41250;BME280;26984;59.928;30.306;2023-04-08T06:21:28;102601.84;;;9.20;47.67
41250;BME280;26984;59.928;30.306;2023-04-08T06:23:55;102605.09;;;9.32;47.34
41250;BME280;26984;59.928;30.306;2023-04-08T06:26:23;102609.19;;;9.36;47.66
41250;BME280;26984;59.928;30.306;2023-04-08T06:28:51;102605.53;;;9.45;46.71
41250;BME280;26984;59.928;30.306;2023-04-08T06:31:18;102610.78;;;9.55;46.81
41250;BME280;26984;59.928;30.306;2023-04-08T06:33:45;102604.25;;;9.57;47.02
41250;BME280;26984;59.928;30.306;2023-04-08T06:36:13;102601.41;;;9.67;47.38
41250;BME280;26984;59.928;30.306;2023-04-08T06:38:42;102600.28;;;9.78;46.78
41250;BME280;26984;59.928;30.306;2023-04-08T06:41:10;102603.66;;;9.88;46.36
41250;BME280;26984;59.928;30.306;2023-04-08T06:43:37;102603.22;;;10.01;46.11
41250;BME280;26984;59.928;30.306;2023-04-08T06:46:04;102596.50;;;10.05;46.30
41250;BME280;26984;59.928;30.306;2023-04-08T06:48:32;102601.91;;;10.21;46.23
41250;BME280;26984;59.928;30.306;2023-04-08T06:51:00;102592.84;;;10.30;45.93
41250;BME280;26984;59.928;30.306;2023-04-08T06:53:27;102600.97;;;10.47;46.02
41250;BME280;26984;59.928;30.306;2023-04-08T06:55:57;102595.56;;;10.63;45.37
41250;BME280;26984;59.928;30.306;2023-04-08T06:58:25;102594.56;;;10.72;45.33
41250;BME280;26984;59.928;30.306;2023-04-08T07:00:52;102585.63;;;10.80;45.45
41250;BME280;26984;59.928;30.306;2023-04-08T07:03:20;102592.00;;;10.87;44.64
41250;BME280;26984;59.928;30.306;2023-04-08T07:05:48;102593.50;;;10.98;45.15
41250;BME280;26984;59.928;30.306;2023-04-08T07:08:15;102593.00;;;11.11;44.61
41250;BME280;26984;59.928;30.306;2023-04-08T07:10:42;102594.81;;;11.18;44.50
41250;BME280;26984;59.928;30.306;2023-04-08T07:13:12;102594.28;;;11.31;44.70
41250;BME280;26984;59.928;30.306;2023-04-08T07:15:39;102595.59;;;11.43;44.54
41250;BME280;26984;59.928;30.306;2023-04-08T07:18:07;102588.78;;;11.56;43.66
41250;BME280;26984;59.928;30.306;2023-04-08T07:20:34;102592.25;;;11.72;42.90
41250;BME280;26984;59.928;30.306;2023-04-08T07:23:03;102589.22;;;11.75;42.91
41250;BME280;26984;59.928;30.306;2023-04-08T07:25:32;102587.00;;;11.79;42.65
41250;BME280;26984;59.928;30.306;2023-04-08T07:27:59;102587.66;;;11.89;41.61
41250;BME280;26984;59.928;30.306;2023-04-08T07:30:28;102596.41;;;11.91;41.98
41250;BME280;26984;59.928;30.306;2023-04-08T07:32:56;102590.66;;;11.94;41.85
41250;BME280;26984;59.928;30.306;2023-04-08T07:35:24;102591.47;;;12.03;41.80
41250;BME280;26984;59.928;30.306;2023-04-08T07:37:52;102589.53;;;12.12;41.62
41250;BME280;26984;59.928;30.306;2023-04-08T07:40:20;102593.03;;;12.20;40.73
41250;BME280;26984;59.928;30.306;2023-04-08T07:42:47;102584.75;;;12.22;41.09
41250;BME280;26984;59.928;30.306;2023-04-08T07:45:15;102594.84;;;12.28;41.30
41250;BME280;26984;59.928;30.306;2023-04-08T07:47:44;102585.13;;;12.42;40.73
41250;BME280;26984;59.928;30.306;2023-04-08T07:50:12;102589.78;;;12.48;40.30
41250;BME280;26984;59.928;30.306;2023-04-08T07:52:39;102588.72;;;12.57;39.33
41250;BME280;26984;59.928;30.306;2023-04-08T07:55:07;102582.69;;;12.70;39.75
41250;BME280;26984;59.928;30.306;2023-04-08T07:57:35;102584.91;;;12.66;38.71
41250;BME280;26984;59.928;30.306;2023-04-08T08:00:02;102576.97;;;12.65;39.14
41250;BME280;26984;59.928;30.306;2023-04-08T08:02:39;102576.88;;;12.73;38.81
41250;BME280;26984;59.928;30.306;2023-04-08T08:05:08;102577.81;;;12.65;39.20
41250;BME280;26984;59.928;30.306;2023-04-08T08:07:35;102583.88;;;12.67;39.47
41250;BME280;26984;59.928;30.306;2023-04-08T08:10:03;102584.63;;;12.76;38.73
41250;BME280;26984;59.928;30.306;2023-04-08T08:12:31;102581.41;;;12.81;38.62
41250;BME280;26984;59.928;30.306;2023-04-08T08:14:58;102571.44;;;12.81;38.56
41250;BME280;26984;59.928;30.306;2023-04-08T08:17:26;102575.44;;;12.85;38.92
41250;BME280;26984;59.928;30.306;2023-04-08T08:19:56;102569.19;;;12.85;38.45
41250;BME280;26984;59.928;30.306;2023-04-08T08:22:24;102576.66;;;12.98;38.12
41250;BME280;26984;59.928;30.306;2023-04-08T08:24:54;102570.97;;;13.07;38.26
41250;BME280;26984;59.928;30.306;2023-04-08T08:27:22;102576.50;;;13.14;38.38
41250;BME280;26984;59.928;30.306;2023-04-08T08:29:49;102576.72;;;13.27;37.77
41250;BME280;26984;59.928;30.306;2023-04-08T08:32:17;102573.06;;;13.35;37.27
41250;BME280;26984;59.928;30.306;2023-04-08T08:34:45;102566.81;;;13.34;37.11
41250;BME280;26984;59.928;30.306;2023-04-08T08:37:12;102568.66;;;13.34;37.01
41250;BME280;26984;59.928;30.306;2023-04-08T08:39:41;102574.19;;;13.40;37.29
41250;BME280;26984;59.928;30.306;2023-04-08T08:42:17;102566.16;;;13.47;37.23
41250;BME280;26984;59.928;30.306;2023-04-08T08:44:44;102566.44;;;13.52;37.05
41250;BME280;26984;59.928;30.306;2023-04-08T08:47:12;102570.25;;;13.58;36.34
41250;BME280;26984;59.928;30.306;2023-04-08T08:49:40;102570.16;;;13.51;36.91
41250;BME280;26984;59.928;30.306;2023-04-08T08:52:07;102569.50;;;13.64;37.29
41250;BME280;26984;59.928;30.306;2023-04-08T08:54:36;102561.72;;;13.76;36.96
41250;BME280;26984;59.928;30.306;2023-04-08T08:57:15;102554.03;;;13.79;36.71
41250;BME280;26984;59.928;30.306;2023-04-08T08:59:44;102559.16;;;13.89;36.88
41250;BME280;26984;59.928;30.306;2023-04-08T09:02:22;102561.63;;;13.84;36.40
41250;BME280;26984;59.928;30.306;2023-04-08T09:04:55;102562.53;;;13.91;36.64
41250;BME280;26984;59.928;30.306;2023-04-08T09:07:23;102560.97;;;14.03;37.18
41250;BME280;26984;59.928;30.306;2023-04-08T09:09:52;102571.13;;;14.16;36.69
41250;BME280;26984;59.928;30.306;2023-04-08T09:12:21;102558.66;;;14.22;36.42
41250;BME280;26984;59.928;30.306;2023-04-08T09:14:49;102552.66;;;14.26;36.57
41250;BME280;26984;59.928;30.306;2023-04-08T09:17:30;102555.03;;;14.36;36.47
41250;BME280;26984;59.928;30.306;2023-04-08T09:20:05;102547.81;;;14.43;36.58
41250;BME280;26984;59.928;30.306;2023-04-08T09:22:35;102544.31;;;14.49;36.74
41250;BME280;26984;59.928;30.306;2023-04-08T09:25:24;102542.25;;;14.51;35.85
41250;BME280;26984;59.928;30.306;2023-04-08T09:27:53;102534.25;;;14.43;35.33
41250;BME280;26984;59.928;30.306;2023-04-08T09:30:22;102535.22;;;14.35;36.27
41250;BME280;26984;59.928;30.306;2023-04-08T09:32:51;102538.44;;;14.46;35.85
41250;BME280;26984;59.928;30.306;2023-04-08T09:35:19;102536.34;;;14.48;35.75
41250;BME280;26984;59.928;30.306;2023-04-08T09:37:47;102536.84;;;14.51;35.51
41250;BME280;26984;59.928;30.306;2023-04-08T09:40:14;102532.72;;;14.55;35.70
41250;BME280;26984;59.928;30.306;2023-04-08T09:42:46;102530.50;;;14.66;34.92
41250;BME280;26984;59.928;30.306;2023-04-08T09:45:17;102528.03;;;14.71;33.92
41250;BME280;26984;59.928;30.306;2023-04-08T09:47:51;102523.44;;;14.71;33.88
41250;BME280;26984;59.928;30.306;2023-04-08T09:50:25;102524.94;;;14.74;33.99
41250;BME280;26984;59.928;30.306;2023-04-08T09:52:56;102523.50;;;14.78;34.03
41250;BME280;26984;59.928;30.306;2023-04-08T09:55:27;102529.16;;;14.83;33.61
41250;BME280;26984;59.928;30.306;2023-04-08T09:57:57;102522.06;;;14.82;33.15
41250;BME280;26984;59.928;30.306;2023-04-08T10:00:29;102530.63;;;14.85;33.43
41250;BME280;26984;59.928;30.306;2023-04-08T10:03:01;102521.00;;;14.83;32.99
41250;BME280;26984;59.928;30.306;2023-04-08T10:05:34;102521.44;;;14.87;33.63
41250;BME280;26984;59.928;30.306;2023-04-08T10:08:03;102525.66;;;14.89;33.61
41250;BME280;26984;59.928;30.306;2023-04-08T10:10:31;102514.19;;;14.87;33.25
41250;BME280;26984;59.928;30.306;2023-04-08T10:12:59;102511.19;;;14.82;32.99
41250;BME280;26984;59.928;30.306;2023-04-08T10:15:29;102512.25;;;14.81;33.60
41250;BME280;26984;59.928;30.306;2023-04-08T10:20:43;102514.41;;;14.92;33.88
41250;BME280;26984;59.928;30.306;2023-04-08T10:23:11;102513.66;;;15.05;32.19
41250;BME280;26984;59.928;30.306;2023-04-08T10:25:40;102508.75;;;14.94;31.79
41250;BME280;26984;59.928;30.306;2023-04-08T10:28:23;102513.31;;;14.58;32.09
41250;BME280;26984;59.928;30.306;2023-04-08T10:30:52;102512.84;;;14.05;32.71
41250;BME280;26984;59.928;30.306;2023-04-08T10:33:21;102510.69;;;13.79;33.65
41250;BME280;26984;59.928;30.306;2023-04-08T10:35:52;102505.41;;;13.93;33.60
41250;BME280;26984;59.928;30.306;2023-04-08T10:38:20;102499.94;;;14.07;33.45
41250;BME280;26984;59.928;30.306;2023-04-08T10:40:48;102498.56;;;14.18;33.96
41250;BME280;26984;59.928;30.306;2023-04-08T10:43:16;102503.97;;;14.40;33.28
41250;BME280;26984;59.928;30.306;2023-04-08T10:45:44;102498.22;;;14.49;32.79
41250;BME280;26984;59.928;30.306;2023-04-08T10:48:18;102505.06;;;14.45;33.05
41250;BME280;26984;59.928;30.306;2023-04-08T10:50:51;102498.81;;;14.45;32.79
41250;BME280;26984;59.928;30.306;2023-04-08T10:53:22;102499.59;;;14.38;33.30
41250;BME280;26984;59.928;30.306;2023-04-08T10:55:50;102497.72;;;14.39;33.50
41250;BME280;26984;59.928;30.306;2023-04-08T10:58:18;102493.66;;;14.28;32.60
41250;BME280;26984;59.928;30.306;2023-04-08T11:00:46;102486.22;;;14.09;33.59
41250;BME280;26984;59.928;30.306;2023-04-08T11:03:13;102494.38;;;14.16;33.78
41250;BME280;26984;59.928;30.306;2023-04-08T11:05:43;102491.78;;;14.29;32.83
41250;BME280;26984;59.928;30.306;2023-04-08T11:08:10;102487.13;;;14.23;33.02
41250;BME280;26984;59.928;30.306;2023-04-08T11:10:38;102481.94;;;14.21;33.06
41250;BME280;26984;59.928;30.306;2023-04-08T11:13:06;102481.94;;;14.00;32.88
41250;BME280;26984;59.928;30.306;2023-04-08T11:15:35;102482.69;;;13.72;33.54
41250;BME280;26984;59.928;30.306;2023-04-08T11:18:02;102479.88;;;13.80;33.74
41250;BME280;26984;59.928;30.306;2023-04-08T11:20:31;102477.09;;;13.95;34.20
41250;BME280;26984;59.928;30.306;2023-04-08T11:23:02;102483.34;;;14.17;33.39
41250;BME280;26984;59.928;30.306;2023-04-08T11:25:30;102471.59;;;14.31;33.34
41250;BME280;26984;59.928;30.306;2023-04-08T11:27:57;102475.13;;;14.53;34.02
41250;BME280;26984;59.928;30.306;2023-04-08T11:30:26;102475.66;;;14.70;33.71
41250;BME280;26984;59.928;30.306;2023-04-08T11:32:54;102480.53;;;14.81;33.53
41250;BME280;26984;59.928;30.306;2023-04-08T11:35:21;102475.19;;;14.95;33.11
41250;BME280;26984;59.928;30.306;2023-04-08T11:37:50;102471.63;;;15.01;33.01
41250;BME280;26984;59.928;30.306;2023-04-08T11:40:20;102471.25;;;15.04;32.65
41250;BME280;26984;59.928;30.306;2023-04-08T11:42:49;102474.13;;;14.96;32.37
41250;BME280;26984;59.928;30.306;2023-04-08T11:45:18;102475.66;;;14.70;31.91
41250;BME280;26984;59.928;30.306;2023-04-08T11:47:46;102471.03;;;13.93;32.98
41250;BME280;26984;59.928;30.306;2023-04-08T11:50:21;102468.09;;;13.88;33.48
41250;BME280;26984;59.928;30.306;2023-04-08T11:52:49;102463.75;;;13.72;33.19
41250;BME280;26984;59.928;30.306;2023-04-08T11:55:24;102465.44;;;13.22;34.74
41250;BME280;26984;59.928;30.306;2023-04-08T11:57:53;102466.09;;;12.80;35.30
41250;BME280;26984;59.928;30.306;2023-04-08T12:00:21;102466.19;;;12.57;35.76
41250;BME280;26984;59.928;30.306;2023-04-08T12:02:50;102453.72;;;12.56;35.66
41250;BME280;26984;59.928;30.306;2023-04-08T12:05:17;102459.91;;;12.41;36.29
41250;BME280;26984;59.928;30.306;2023-04-08T12:07:45;102464.38;;;12.34;36.16
41250;BME280;26984;59.928;30.306;2023-04-08T12:10:12;102449.88;;;12.12;36.57
41250;BME280;26984;59.928;30.306;2023-04-08T12:12:41;102450.09;;;12.11;36.28
41250;BME280;26984;59.928;30.306;2023-04-08T12:15:09;102456.03;;;12.06;36.50
41250;BME280;26984;59.928;30.306;2023-04-08T12:17:37;102456.34;;;12.26;36.17
41250;BME280;26984;59.928;30.306;2023-04-08T12:20:05;102443.16;;;12.31;36.56
41250;BME280;26984;59.928;30.306;2023-04-08T12:22:32;102450.38;;;12.31;36.47
41250;BME280;26984;59.928;30.306;2023-04-08T12:25:00;102447.97;;;12.21;36.75
41250;BME280;26984;59.928;30.306;2023-04-08T12:27:29;102451.63;;;12.05;36.61
41250;BME280;26984;59.928;30.306;2023-04-08T12:29:59;102457.59;;;12.01;36.76
41250;BME280;26984;59.928;30.306;2023-04-08T12:32:27;102457.31;;;11.95;36.39
41250;BME280;26984;59.928;30.306;2023-04-08T12:34:55;102450.41;;;11.93;36.94
41250;BME280;26984;59.928;30.306;2023-04-08T12:37:22;102443.97;;;12.17;36.38
41250;BME280;26984;59.928;30.306;2023-04-08T12:39:49;102445.63;;;12.18;36.50
41250;BME280;26984;59.928;30.306;2023-04-08T12:42:17;102436.22;;;12.14;36.75
41250;BME280;26984;59.928;30.306;2023-04-08T12:44:44;102438.56;;;12.17;36.48
41250;BME280;26984;59.928;30.306;2023-04-08T12:47:13;102430.81;;;12.14;36.61
41250;BME280;26984;59.928;30.306;2023-04-08T12:49:41;102437.34;;;12.34;35.99
41250;BME280;26984;59.928;30.306;2023-04-08T12:52:08;102431.94;;;12.34;36.55
41250;BME280;26984;59.928;30.306;2023-04-08T12:54:36;102425.16;;;12.38;36.38